Time;durP1;ratioP1;P1;durP2;ratioP2;P2;SDS_P1;SDS_P2;PMS_P1;PMS_P2;Temp;Humidity;BMP_temperature;BMP_pressure;BME280_temperature;BME280_humidity;BME280_pressure;Samples;Min_cycle;Max_cycle;Signal;HPM_P1;HPM_P2
2023/03/20 00:00:19;;;;;;;1.50;1.40;;;8.80;95.10;;;;;;5031276;28;20950;-67
2023/03/20 00:02:46;;;;;;;1.90;1.80;;;8.70;95.60;;;;;;5011773;28;20458;-67
2023/03/20 00:05:18;;;;;;;1.93;1.73;;;8.60;95.60;;;;;;5019126;28;20457;-68
2023/03/20 00:07:46;;;;;;;1.50;1.40;;;8.60;96.20;;;;;;5015989;28;21243;-67
2023/03/20 00:10:15;;;;;;;2.00;1.90;;;8.70;95.80;;;;;;5023093;28;20451;-67
2023/03/20 00:12:42;;;;;;;1.70;1.47;;;8.80;95.80;;;;;;5023165;28;20442;-68
2023/03/20 00:15:23;;;;;;;2.00;1.80;;;8.80;95.70;;;;;;5021109;28;20451;-67
2023/03/20 00:17:50;;;;;;;2.03;1.70;;;8.80;96.00;;;;;;5011320;28;20471;-67
2023/03/20 00:20:17;;;;;;;1.63;1.50;;;8.80;96.00;;;;;;5023210;28;20854;-67
2023/03/20 00:22:44;;;;;;;1.50;1.40;;;8.90;96.10;;;;;;5017819;28;20461;-67
2023/03/20 00:25:15;;;;;;;2.40;1.70;;;8.90;96.20;;;;;;5023679;28;20453;-68
2023/03/20 00:27:43;;;;;;;2.23;2.03;;;8.90;95.90;;;;;;5012663;28;20465;-66
2023/03/20 00:30:25;;;;;;;2.20;2.00;;;8.80;96.00;;;;;;5015365;28;20446;-68
2023/03/20 00:32:52;;;;;;;2.10;1.83;;;8.80;96.00;;;;;;5019989;28;20451;-68
2023/03/20 00:35:22;;;;;;;3.57;2.13;;;8.70;96.20;;;;;;5030811;28;20451;-68
2023/03/20 00:37:50;;;;;;;3.07;1.83;;;8.60;96.50;;;;;;5013960;28;20514;-67
2023/03/20 00:40:18;;;;;;;2.37;1.80;;;8.60;96.60;;;;;;5010509;28;20481;-67
2023/03/20 00:42:47;;;;;;;2.17;1.80;;;8.60;97.00;;;;;;5026078;28;20468;-68
2023/03/20 00:45:17;;;;;;;2.00;1.77;;;8.60;97.10;;;;;;5030663;28;20469;-68
2023/03/20 00:47:45;;;;;;;2.27;2.13;;;8.70;97.10;;;;;;5030674;28;20474;-67
2023/03/20 00:50:17;;;;;;;2.60;2.40;;;8.70;97.20;;;;;;5030824;28;20450;-68
2023/03/20 00:52:44;;;;;;;3.10;2.27;;;8.70;97.20;;;;;;5022335;28;20448;-68
2023/03/20 00:55:12;;;;;;;2.53;1.97;;;8.70;97.30;;;;;;5013307;28;20539;-67
2023/03/20 00:57:44;;;;;;;2.10;2.00;;;8.80;97.00;;;;;;5010401;28;20471;-68
2023/03/20 01:00:26;;;;;;;2.43;2.23;;;8.80;97.20;;;;;;5026445;28;20493;-67
2023/03/20 01:02:54;;;;;;;2.40;2.00;;;8.70;97.20;;;;;;5030021;28;20455;-67
2023/03/20 01:05:22;;;;;;;3.67;2.37;;;8.70;97.30;;;;;;5030604;28;20481;-67
2023/03/20 01:07:49;;;;;;;2.37;2.17;;;8.70;97.40;;;;;;5030104;28;20478;-67
2023/03/20 01:10:17;;;;;;;2.87;2.37;;;8.60;97.40;;;;;;5030465;28;20522;-69
2023/03/20 01:12:46;;;;;;;2.93;2.63;;;8.70;97.60;;;;;;5030041;28;20454;-69
2023/03/20 01:15:21;;;;;;;2.90;2.60;;;8.70;97.50;;;;;;5017324;28;20447;-68
2023/03/20 01:17:48;;;;;;;2.93;2.60;;;8.80;97.60;;;;;;5025827;28;21058;-70
2023/03/20 01:20:18;;;;;;;5.40;2.50;;;9.00;97.30;;;;;;5026175;28;20952;-69
2023/03/20 01:22:44;;;;;;;3.73;2.33;;;9.00;96.90;;;;;;5029810;28;20457;-69
2023/03/20 01:25:11;;;;;;;3.13;2.83;;;9.00;97.00;;;;;;5015380;28;20463;-69
2023/03/20 01:27:39;;;;;;;3.87;2.70;;;9.10;96.80;;;;;;5016142;28;20844;-69
2023/03/20 01:30:20;;;;;;;3.23;2.93;;;9.10;96.20;;;;;;5026214;28;20449;-69
2023/03/20 01:32:47;;;;;;;2.37;2.17;;;9.00;96.20;;;;;;5011639;28;20450;-69
2023/03/20 01:35:20;;;;;;;3.03;2.73;;;8.90;96.30;;;;;;5018385;28;20458;-70
2023/03/20 01:37:48;;;;;;;3.00;2.80;;;8.90;96.70;;;;;;5011223;28;20475;-69
2023/03/20 01:40:26;;;;;;;4.53;3.13;;;8.80;96.40;;;;;;5015406;28;20462;-69
2023/03/20 01:42:53;;;;;;;3.70;3.40;;;8.70;96.60;;;;;;5009683;28;20447;-69
2023/03/20 01:45:25;;;;;;;3.10;2.90;;;8.70;97.00;;;;;;5010048;28;20450;-69
2023/03/20 01:47:52;;;;;;;3.20;3.00;;;8.70;97.20;;;;;;5017565;28;20472;-69
2023/03/20 01:50:27;;;;;;;6.00;3.13;;;8.70;97.40;;;;;;5015193;28;20462;-70
2023/03/20 01:53:00;;;;;;;3.43;3.13;;;8.60;97.40;;;;;;5029381;28;20456;-68
2023/03/20 01:55:27;;;;;;;3.67;3.37;;;8.70;97.80;;;;;;5029650;28;20466;-69
2023/03/20 01:57:56;;;;;;;4.13;3.83;;;8.80;97.60;;;;;;5020672;28;21030;-70
2023/03/20 02:00:24;;;;;;;4.50;4.00;;;8.90;97.30;;;;;;5027088;28;20463;-70
2023/03/20 02:02:51;;;;;;;4.90;4.50;;;8.80;96.90;;;;;;5025458;28;20462;-68
2023/03/20 02:05:21;;;;;;;5.00;4.00;;;8.90;96.70;;;;;;5011676;28;20451;-68
2023/03/20 02:07:55;;;;;;;4.20;3.80;;;8.90;96.60;;;;;;5009705;28;20858;-69
2023/03/20 02:10:22;;;;;;;5.07;4.70;;;9.00;96.50;;;;;;5014494;28;20455;-68
2023/03/20 02:12:50;;;;;;;5.80;4.27;;;8.90;96.50;;;;;;5011301;28;20465;-69
2023/03/20 02:15:18;;;;;;;4.83;4.33;;;8.80;96.70;;;;;;5009778;28;20961;-69
2023/03/20 02:17:46;;;;;;;6.17;4.80;;;8.80;96.90;;;;;;5025358;28;20459;-67
2023/03/20 02:20:23;;;;;;;5.50;5.10;;;8.80;97.00;;;;;;5020891;28;20450;-66
2023/03/20 02:23:32;;;;;;;4.90;4.50;;;8.80;97.00;;;;;;5013215;28;20449;-67
2023/03/20 02:26:16;;;;;;;5.13;4.73;;;8.90;97.10;;;;;;5012368;28;20449;-67
2023/03/20 02:29:07;;;;;;;4.07;3.67;;;8.80;97.10;;;;;;5020377;28;20451;-67
2023/03/20 02:31:55;;;;;;;5.17;4.77;;;8.80;97.20;;;;;;5027032;28;20503;-67
2023/03/20 02:35:02;;;;;;;5.30;4.80;;;8.80;97.10;;;;;;5028539;28;20481;-66
2023/03/20 02:37:53;;;;;;;4.10;3.70;;;8.80;96.90;;;;;;4998527;28;20466;-68
2023/03/20 02:40:33;;;;;;;5.67;3.97;;;8.90;96.80;;;;;;5008204;28;20451;-67
2023/03/20 02:43:09;;;;;;;5.10;3.80;;;8.90;96.40;;;;;;5015207;28;20450;-66
2023/03/20 02:45:45;;;;;;;3.80;3.50;;;8.90;96.20;;;;;;5029032;28;20494;-68
2023/03/20 02:48:16;;;;;;;3.50;3.20;;;9.00;95.80;;;;;;5021322;28;20472;-68
2023/03/20 02:50:50;;;;;;;3.37;3.10;;;9.00;95.80;;;;;;5009763;28;20938;-68
2023/03/20 02:53:31;;;;;;;3.03;2.83;;;9.00;95.50;;;;;;5009258;28;21069;-67
2023/03/20 02:56:06;;;;;;;3.20;2.90;;;9.00;95.50;;;;;;5015076;28;20455;-67
2023/03/20 02:58:39;;;;;;;3.60;3.30;;;8.90;95.50;;;;;;5011910;28;20481;-68
2023/03/20 03:01:13;;;;;;;3.00;2.80;;;8.90;95.60;;;;;;5009896;28;20539;-68
2023/03/20 03:03:46;;;;;;;3.23;2.90;;;8.80;95.70;;;;;;5013207;28;20492;-68
2023/03/20 03:06:21;;;;;;;2.70;2.50;;;8.90;95.80;;;;;;5016865;28;20446;-68
2023/03/20 03:08:54;;;;;;;3.47;3.17;;;8.90;95.70;;;;;;5012639;28;20444;-68
2023/03/20 03:11:21;;;;;;;4.10;2.77;;;8.80;95.90;;;;;;5019140;28;20468;-65
2023/03/20 03:13:52;;;;;;;5.57;3.53;;;8.70;95.90;;;;;;5032019;28;20448;-68
2023/03/20 03:16:22;;;;;;;3.67;3.23;;;8.70;96.30;;;;;;5023035;28;20454;-67
2023/03/20 03:19:03;;;;;;;6.50;3.10;;;8.80;96.30;;;;;;5032545;28;20453;-68
2023/03/20 03:21:32;;;;;;;3.37;3.07;;;8.80;96.00;;;;;;5029781;28;20481;-68
2023/03/20 03:24:00;;;;;;;3.13;2.73;;;8.80;96.00;;;;;;5022783;28;20457;-68
2023/03/20 03:26:32;;;;;;;2.20;2.00;;;8.80;95.70;;;;;;5031981;28;20455;-68
2023/03/20 03:29:02;;;;;;;1.87;1.70;;;8.70;95.70;;;;;;5012994;28;20533;-68
2023/03/20 03:31:31;;;;;;;2.37;1.80;;;8.70;95.60;;;;;;5012194;28;20447;-68
2023/03/20 03:34:00;;;;;;;2.50;2.27;;;8.70;95.30;;;;;;5018139;28;20969;-69
2023/03/20 03:36:38;;;;;;;6.40;4.43;;;8.80;95.80;;;;;;5021968;28;20455;-68
2023/03/20 03:39:16;;;;;;;2.30;2.20;;;8.80;95.40;;;;;;5016095;28;20487;-68
2023/03/20 03:41:47;;;;;;;3.20;2.90;;;8.80;95.40;;;;;;5012091;28;20497;-68
2023/03/20 03:44:22;;;;;;;3.17;2.93;;;8.80;95.80;;;;;;5011749;28;20474;-69
2023/03/20 03:46:54;;;;;;;3.20;3.00;;;8.80;96.20;;;;;;5022618;28;20477;-68
2023/03/20 03:49:24;;;;;;;2.20;2.00;;;8.80;96.00;;;;;;5030594;28;20493;-68
2023/03/20 03:51:55;;;;;;;1.80;1.70;;;8.80;95.50;;;;;;5030734;28;20463;-68
2023/03/20 03:54:26;;;;;;;1.40;1.30;;;8.70;95.30;;;;;;5021533;28;20502;-68
2023/03/20 03:56:55;;;;;;;2.37;1.93;;;8.60;95.30;;;;;;5012696;28;20553;-68
2023/03/20 03:59:27;;;;;;;1.77;1.53;;;8.50;95.50;;;;;;5013994;28;20459;-69
2023/03/20 04:01:56;;;;;;;1.60;1.50;;;8.50;95.80;;;;;;5026966;28;20488;-69
2023/03/20 04:04:25;;;;;;;1.30;1.20;;;8.40;96.10;;;;;;5031215;28;20443;-69
2023/03/20 04:06:52;;;;;;;2.27;1.50;;;8.30;96.20;;;;;;5031243;28;20474;-69
2023/03/20 04:09:19;;;;;;;1.97;1.80;;;8.30;96.40;;;;;;5030640;28;20450;-69
2023/03/20 04:11:50;;;;;;;2.90;2.50;;;8.30;96.60;;;;;;5011520;28;20557;-68
2023/03/20 04:14:17;;;;;;;2.77;2.53;;;8.30;96.80;;;;;;5011282;28;20452;-68
2023/03/20 04:16:44;;;;;;;3.20;2.63;;;8.50;96.60;;;;;;5011679;28;20587;-66
2023/03/20 04:19:11;;;;;;;3.20;2.27;;;8.40;96.50;;;;;;5011250;28;20461;-67
2023/03/20 04:21:38;;;;;;;2.63;2.40;;;8.40;96.60;;;;;;5015260;28;20480;-67
2023/03/20 04:24:06;;;;;;;3.10;2.90;;;8.40;96.80;;;;;;5015096;28;20451;-69
2023/03/20 04:26:32;;;;;;;3.13;2.73;;;8.50;97.00;;;;;;5026821;28;21002;-67
2023/03/20 04:29:01;;;;;;;3.30;2.97;;;8.60;96.90;;;;;;5014705;28;20457;-69
2023/03/20 04:31:28;;;;;;;2.33;2.13;;;8.60;96.70;;;;;;5031008;28;20450;-67
2023/03/20 04:33:55;;;;;;;3.27;2.97;;;8.50;96.80;;;;;;5030673;28;20448;-67
2023/03/20 04:36:22;;;;;;;2.27;1.90;;;8.60;96.90;;;;;;5014473;28;20965;-68
2023/03/20 04:38:49;;;;;;;2.77;2.57;;;8.50;96.80;;;;;;5020352;28;20463;-69
2023/03/20 04:41:16;;;;;;;2.73;2.47;;;8.50;96.90;;;;;;5020874;28;20474;-69
2023/03/20 04:43:43;;;;;;;3.20;2.60;;;8.50;96.80;;;;;;5020841;28;20451;-67
2023/03/20 04:46:11;;;;;;;3.03;2.83;;;8.60;96.90;;;;;;5021153;28;20448;-67
2023/03/20 04:48:37;;;;;;;2.97;2.60;;;8.50;96.80;;;;;;5030201;28;20459;-67
2023/03/20 04:51:05;;;;;;;2.80;2.23;;;8.50;96.80;;;;;;5030942;28;20463;-68
2023/03/20 04:53:31;;;;;;;2.50;1.80;;;8.40;96.90;;;;;;5029855;28;20458;-68
2023/03/20 04:55:58;;;;;;;1.77;1.67;;;8.40;96.70;;;;;;5026194;28;20467;-69
2023/03/20 04:58:25;;;;;;;2.30;1.40;;;8.40;96.80;;;;;;5020609;28;20471;-68
2023/03/20 05:00:52;;;;;;;2.40;1.40;;;8.50;96.30;;;;;;5028533;28;20827;-71
2023/03/20 05:03:20;;;;;;;1.70;1.60;;;8.70;95.60;;;;;;5024240;28;20475;-71
2023/03/20 05:05:46;;;;;;;1.30;1.20;;;8.70;95.30;;;;;;5011412;28;20451;-71
2023/03/20 05:08:13;;;;;;;2.10;1.63;;;8.70;95.00;;;;;;5029033;28;20476;-68
2023/03/20 05:10:40;;;;;;;1.70;1.60;;;8.70;94.90;;;;;;5029987;28;20458;-68
2023/03/20 05:13:07;;;;;;;1.57;1.27;;;8.60;95.10;;;;;;5018519;28;20447;-68
2023/03/20 05:15:33;;;;;;;1.27;1.17;;;8.50;95.20;;;;;;5010366;28;20482;-69
2023/03/20 05:18:00;;;;;;;1.40;1.00;;;8.50;95.30;;;;;;5018965;28;20470;-67
2023/03/20 05:20:28;;;;;;;1.20;1.10;;;8.50;95.60;;;;;;5027910;28;20456;-68
2023/03/20 05:22:55;;;;;;;1.40;1.30;;;8.50;95.40;;;;;;5018714;28;20480;-68
2023/03/20 05:25:22;;;;;;;1.20;1.10;;;8.40;95.00;;;;;;5017191;28;20459;-68
2023/03/20 05:27:49;;;;;;;1.53;1.33;;;8.40;95.40;;;;;;5024392;28;20476;-69
2023/03/20 05:30:16;;;;;;;2.00;1.90;;;8.40;95.60;;;;;;5026779;28;20460;-67
2023/03/20 05:32:43;;;;;;;1.90;1.80;;;8.50;95.80;;;;;;5025589;28;20441;-67
2023/03/20 05:35:10;;;;;;;3.10;2.03;;;8.50;96.00;;;;;;5014270;28;21011;-69
2023/03/20 05:37:39;;;;;;;2.00;1.90;;;8.50;96.20;;;;;;5024503;28;21319;-68
2023/03/20 05:40:07;;;;;;;4.60;2.50;;;8.60;96.20;;;;;;5013614;28;20484;-68
2023/03/20 05:42:34;;;;;;;1.80;1.70;;;8.60;96.20;;;;;;5010918;28;20485;-67
2023/03/20 05:45:00;;;;;;;2.00;1.73;;;8.70;96.20;;;;;;5018127;28;20449;-68
2023/03/20 05:47:27;;;;;;;1.60;1.40;;;8.70;95.40;;;;;;5017205;28;20485;-69
2023/03/20 05:49:54;;;;;;;2.83;1.33;;;8.70;95.40;;;;;;5009926;28;20447;-66
2023/03/20 05:52:21;;;;;;;0.90;0.90;;;8.80;95.30;;;;;;5027914;28;20465;-70
2023/03/20 05:54:49;;;;;;;1.60;1.30;;;8.90;94.00;;;;;;5017928;28;20828;-70
2023/03/20 05:57:16;;;;;;;2.57;1.53;;;8.90;93.90;;;;;;5023040;28;20478;-69
2023/03/20 05:59:43;;;;;;;1.60;1.50;;;8.80;94.50;;;;;;5013637;28;20466;-72
2023/03/20 06:02:10;;;;;;;2.50;1.90;;;8.90;94.50;;;;;;5017768;28;20529;-69
2023/03/20 06:04:38;;;;;;;2.77;1.90;;;8.90;94.20;;;;;;5017944;28;21146;-71
2023/03/20 06:07:05;;;;;;;2.47;2.10;;;8.90;93.50;;;;;;5017576;28;20470;-69
2023/03/20 06:09:32;;;;;;;1.10;1.00;;;8.90;94.00;;;;;;5017631;28;20453;-70
2023/03/20 06:12:00;;;;;;;1.10;1.00;;;8.90;93.20;;;;;;5019561;28;20445;-71
2023/03/20 06:14:27;;;;;;;2.93;1.30;;;9.00;93.50;;;;;;5028726;28;20454;-69
2023/03/20 06:16:54;;;;;;;3.03;1.63;;;9.00;93.50;;;;;;5024342;28;21026;-68
2023/03/20 06:19:21;;;;;;;1.40;1.27;;;9.00;93.20;;;;;;5020041;28;20462;-67
2023/03/20 06:21:48;;;;;;;1.37;1.27;;;9.00;93.20;;;;;;5023102;28;20977;-66
2023/03/20 06:24:15;;;;;;;1.87;1.40;;;9.00;93.60;;;;;;5016690;28;20823;-67
2023/03/20 06:26:41;;;;;;;1.57;1.17;;;9.10;93.30;;;;;;5011927;28;20565;-66
2023/03/20 06:29:09;;;;;;;1.90;1.20;;;9.20;93.10;;;;;;5011662;28;20443;-65
2023/03/20 06:31:36;;;;;;;1.37;1.17;;;9.20;92.80;;;;;;5016799;28;21003;-67
2023/03/20 06:34:03;;;;;;;2.10;1.33;;;9.20;92.80;;;;;;5016584;28;20488;-65
2023/03/20 06:36:30;;;;;;;1.40;1.30;;;9.30;92.10;;;;;;5023763;28;20999;-66
2023/03/20 06:38:58;;;;;;;1.93;1.83;;;9.40;92.70;;;;;;5020073;28;20876;-67
2023/03/20 06:41:25;;;;;;;2.03;1.33;;;9.40;92.80;;;;;;5016779;28;20467;-68
2023/03/20 06:43:52;;;;;;;2.73;1.93;;;9.50;93.20;;;;;;5016164;28;20475;-68
2023/03/20 06:46:20;;;;;;;2.90;1.80;;;9.70;93.00;;;;;;5022216;28;20448;-67
2023/03/20 06:48:47;;;;;;;1.50;1.40;;;9.70;92.70;;;;;;5025366;28;20484;-68
2023/03/20 06:51:14;;;;;;;3.77;2.00;;;9.70;92.80;;;;;;5013353;28;20460;-67
2023/03/20 06:53:42;;;;;;;2.03;1.80;;;9.90;92.70;;;;;;5013779;28;20558;-66
2023/03/20 06:56:10;;;;;;;2.37;1.80;;;9.90;92.30;;;;;;5022885;28;20532;-68
2023/03/20 06:58:37;;;;;;;2.50;1.90;;;10.10;92.10;;;;;;5024385;28;20940;-67
2023/03/20 07:01:09;;;;;;;4.13;1.70;;;10.20;90.50;;;;;;5020139;28;20461;-67
2023/03/20 07:03:37;;;;;;;1.87;1.37;;;10.40;90.00;;;;;;5016701;28;20477;-68
2023/03/20 07:06:05;;;;;;;1.80;1.70;;;10.60;89.60;;;;;;5019713;28;20452;-67
2023/03/20 07:08:32;;;;;;;5.40;1.70;;;10.80;89.70;;;;;;5025287;28;20473;-68
2023/03/20 07:10:59;;;;;;;1.37;1.23;;;11.10;88.20;;;;;;5023662;28;20456;-68
2023/03/20 07:13:27;;;;;;;2.70;1.80;;;11.40;86.60;;;;;;5019811;28;21019;-68
2023/03/20 07:15:53;;;;;;;2.17;1.50;;;11.60;84.80;;;;;;5025413;28;20447;-68
2023/03/20 07:18:21;;;;;;;1.57;1.47;;;11.70;82.90;;;;;;5016556;28;20481;-67
2023/03/20 07:20:51;;;;;;;2.93;1.43;;;11.70;84.60;;;;;;5030554;28;20450;-67
2023/03/20 07:23:18;;;;;;;1.97;1.30;;;11.70;83.90;;;;;;5016513;28;20531;-67
2023/03/20 07:25:45;;;;;;;2.77;1.30;;;11.70;84.00;;;;;;5026361;28;20449;-68
2023/03/20 07:28:12;;;;;;;1.90;1.60;;;11.70;83.90;;;;;;5017546;28;20504;-67
2023/03/20 07:30:40;;;;;;;2.10;1.90;;;11.60;84.20;;;;;;5024095;28;20449;-67
2023/03/20 07:33:07;;;;;;;3.00;1.60;;;11.50;82.80;;;;;;5020000;28;20455;-68
2023/03/20 07:35:33;;;;;;;3.73;2.20;;;11.30;83.30;;;;;;5019698;28;20791;-68
2023/03/20 07:38:01;;;;;;;1.70;1.40;;;11.10;84.60;;;;;;5026696;28;20492;-68
2023/03/20 07:40:28;;;;;;;4.20;1.50;;;10.90;86.60;;;;;;5023272;28;20457;-69
2023/03/20 07:42:55;;;;;;;2.70;1.80;;;10.90;86.30;;;;;;5018551;28;20487;-67
2023/03/20 07:45:22;;;;;;;2.60;1.90;;;11.00;85.00;;;;;;5026151;28;20467;-68
2023/03/20 07:47:49;;;;;;;4.23;2.03;;;11.10;84.80;;;;;;5016935;28;20478;-68
2023/03/20 07:50:16;;;;;;;1.93;1.80;;;11.30;85.40;;;;;;5020037;28;20456;-67
2023/03/20 07:52:46;;;;;;;2.73;1.83;;;11.40;82.30;;;;;;5028878;28;20444;-67
2023/03/20 07:55:15;;;;;;;1.67;1.53;;;11.40;82.60;;;;;;5012223;28;20454;-67
2023/03/20 07:57:42;;;;;;;1.90;1.43;;;11.50;85.10;;;;;;5022824;28;20996;-67
2023/03/20 08:00:10;;;;;;;1.60;1.50;;;11.70;83.20;;;;;;5028006;28;20451;-68
2023/03/20 08:02:36;;;;;;;1.37;1.27;;;11.80;84.80;;;;;;5018372;28;20497;-68
2023/03/20 08:05:04;;;;;;;1.80;1.70;;;12.10;82.80;;;;;;5022206;28;20446;-67
2023/03/20 08:07:31;;;;;;;3.17;1.57;;;12.40;82.30;;;;;;5024868;28;20499;-67
2023/03/20 08:09:58;;;;;;;1.50;1.40;;;12.80;78.00;;;;;;5024854;28;20464;-67
2023/03/20 08:12:26;;;;;;;2.30;1.87;;;13.00;75.30;;;;;;5013498;28;20441;-67
2023/03/20 08:14:53;;;;;;;1.30;1.20;;;13.30;77.10;;;;;;5028572;28;20468;-66
2023/03/20 08:17:20;;;;;;;1.33;1.23;;;13.50;72.60;;;;;;5017495;28;20480;-66
2023/03/20 08:19:47;;;;;;;2.03;1.37;;;13.30;71.10;;;;;;5022855;28;20456;-67
2023/03/20 08:22:14;;;;;;;2.90;1.40;;;12.90;74.90;;;;;;5015837;28;20503;-66
2023/03/20 08:24:40;;;;;;;1.87;1.40;;;12.60;73.00;;;;;;5026274;28;20485;-67
2023/03/20 08:27:07;;;;;;;3.20;1.80;;;12.40;76.10;;;;;;5016696;28;20486;-66
2023/03/20 08:29:35;;;;;;;2.50;1.60;;;12.30;74.90;;;;;;5023917;28;20450;-66
2023/03/20 08:32:02;;;;;;;2.07;1.37;;;12.00;77.50;;;;;;5021862;28;20450;-67
2023/03/20 08:34:30;;;;;;;2.90;1.30;;;12.10;78.40;;;;;;5016620;28;20910;-67
2023/03/20 08:36:57;;;;;;;1.90;1.30;;;12.40;77.00;;;;;;5014375;28;20490;-66
2023/03/20 08:39:24;;;;;;;1.47;1.00;;;12.70;74.30;;;;;;5014794;28;20459;-68
2023/03/20 08:41:51;;;;;;;1.67;1.00;;;12.90;74.70;;;;;;5010911;28;20459;-69
2023/03/20 08:44:17;;;;;;;2.00;1.47;;;12.90;71.30;;;;;;5023519;28;20485;-70
2023/03/20 08:46:46;;;;;;;1.57;1.30;;;13.00;71.10;;;;;;5012210;28;20469;-67
2023/03/20 08:49:13;;;;;;;1.93;1.50;;;12.90;71.90;;;;;;5016295;28;20452;-67
2023/03/20 08:51:40;;;;;;;3.80;2.00;;;12.90;70.00;;;;;;5017994;28;20456;-66
2023/03/20 08:54:07;;;;;;;2.50;1.70;;;12.90;71.00;;;;;;5017384;28;20474;-68
2023/03/20 08:56:34;;;;;;;3.10;1.80;;;12.90;71.00;;;;;;5027692;28;20461;-66
2023/03/20 08:59:01;;;;;;;1.90;1.70;;;12.80;71.60;;;;;;5020613;28;20446;-70
2023/03/20 09:01:27;;;;;;;1.70;1.57;;;12.80;68.90;;;;;;5015292;28;20471;-69
2023/03/20 09:03:55;;;;;;;3.13;2.10;;;12.70;69.70;;;;;;5015817;28;20997;-67
2023/03/20 09:06:22;;;;;;;4.77;1.97;;;12.80;69.50;;;;;;5026813;28;20943;-66
2023/03/20 09:08:49;;;;;;;1.97;1.70;;;13.10;69.00;;;;;;5021150;28;20443;-67
2023/03/20 09:11:16;;;;;;;2.00;1.77;;;13.50;67.90;;;;;;5024461;28;20467;-67
2023/03/20 09:13:43;;;;;;;2.73;2.00;;;13.80;64.70;;;;;;5020689;28;20447;-66
2023/03/20 09:16:10;;;;;;;1.73;1.27;;;14.00;67.50;;;;;;5019894;28;20993;-67
2023/03/20 09:18:37;;;;;;;1.60;1.50;;;14.10;66.80;;;;;;5018193;28;20466;-67
2023/03/20 09:21:05;;;;;;;1.83;1.70;;;14.60;62.50;;;;;;5018205;28;20473;-67
2023/03/20 09:23:32;;;;;;;2.27;1.37;;;15.10;65.00;;;;;;5010045;28;21076;-66
2023/03/20 09:25:59;;;;;;;1.93;1.83;;;15.60;63.80;;;;;;5019684;28;20450;-67
2023/03/20 09:28:27;;;;;;;3.03;2.10;;;15.80;58.40;;;;;;5010452;28;20473;-68
2023/03/20 09:30:56;;;;;;;2.17;1.60;;;15.30;58.70;;;;;;5010896;28;20449;-67
2023/03/20 09:33:22;;;;;;;2.03;1.80;;;15.00;59.40;;;;;;5014076;28;20456;-68
2023/03/20 09:35:49;;;;;;;2.40;1.70;;;14.60;61.40;;;;;;5017123;28;20856;-67
2023/03/20 09:38:17;;;;;;;2.23;1.80;;;14.40;62.40;;;;;;5027761;28;20488;-66
2023/03/20 09:40:51;;;;;;;2.40;1.70;;;14.20;61.80;;;;;;5019343;28;20549;-67
2023/03/20 09:43:28;;;;;;;1.80;1.50;;;13.90;61.40;;;;;;5009622;28;20485;-67
2023/03/20 09:46:05;;;;;;;1.73;1.63;;;13.90;61.70;;;;;;5024380;28;20833;-67
2023/03/20 09:48:39;;;;;;;1.47;1.17;;;14.00;63.90;;;;;;5022820;28;20477;-67
2023/03/20 09:51:14;;;;;;;2.47;1.60;;;14.30;64.80;;;;;;5019788;28;20959;-67
2023/03/20 09:53:49;;;;;;;3.60;2.27;;;14.90;62.10;;;;;;5018562;28;20453;-68
2023/03/20 09:56:20;;;;;;;4.53;2.50;;;15.40;63.40;;;;;;5024192;28;20451;-68
2023/03/20 09:58:53;;;;;;;1.33;1.20;;;15.70;59.30;;;;;;5014093;28;20816;-67
2023/03/20 10:01:22;;;;;;;2.20;1.47;;;15.90;57.00;;;;;;5022855;28;20834;-67
2023/03/20 10:03:54;;;;;;;1.53;1.13;;;16.00;56.80;;;;;;5029360;28;20480;-67
2023/03/20 10:06:21;;;;;;;1.70;1.60;;;16.20;56.50;;;;;;5028076;28;20453;-68
2023/03/20 10:08:49;;;;;;;2.50;2.13;;;16.00;57.50;;;;;;5017614;28;20454;-67
2023/03/20 10:11:32;;;;;;;3.20;2.20;;;15.80;59.00;;;;;;5015397;28;21002;-67
2023/03/20 10:14:17;;;;;;;3.30;1.80;;;15.30;59.30;;;;;;5022015;28;20444;-68
2023/03/20 10:16:59;;;;;;;2.30;2.10;;;14.90;60.40;;;;;;5033644;28;20523;-67
2023/03/20 10:19:29;;;;;;;3.47;2.70;;;14.50;61.40;;;;;;5017853;28;20475;-68
2023/03/20 10:22:02;;;;;;;2.93;2.70;;;14.00;61.90;;;;;;5014132;28;21140;-68
2023/03/20 10:24:34;;;;;;;2.50;2.03;;;13.70;64.20;;;;;;5027047;28;20544;-68
2023/03/20 10:27:05;;;;;;;4.00;2.30;;;13.60;65.80;;;;;;5022723;28;20470;-67
2023/03/20 10:29:43;;;;;;;3.30;3.00;;;13.50;65.10;;;;;;5025606;28;20462;-67
2023/03/20 10:32:18;;;;;;;2.70;2.33;;;13.30;66.60;;;;;;5024401;28;20983;-67
2023/03/20 10:34:55;;;;;;;4.17;3.80;;;13.10;67.70;;;;;;5037441;28;20455;-68
2023/03/20 10:37:40;;;;;;;2.50;2.30;;;13.00;69.80;;;;;;5017969;28;20472;-68
2023/03/20 10:40:26;;;;;;;4.33;2.23;;;13.00;68.90;;;;;;5027705;28;20450;-67
2023/03/20 10:42:56;;;;;;;3.53;2.53;;;12.90;68.10;;;;;;5021081;28;20461;-68
2023/03/20 10:45:39;;;;;;;4.10;2.80;;;12.80;68.90;;;;;;5024321;28;20446;-66
2023/03/20 10:48:14;;;;;;;3.40;2.63;;;12.80;68.70;;;;;;5022293;28;20469;-68
2023/03/20 10:50:45;;;;;;;3.67;3.10;;;12.80;68.20;;;;;;5031764;28;20461;-68
2023/03/20 10:53:23;;;;;;;3.83;3.40;;;12.70;67.50;;;;;;5023381;28;20444;-69
2023/03/20 10:55:57;;;;;;;5.70;4.40;;;12.80;69.60;;;;;;5020337;28;20448;-68
2023/03/20 10:58:27;;;;;;;4.93;4.53;;;12.80;69.30;;;;;;5021206;28;20550;-68
2023/03/20 11:00:55;;;;;;;4.70;4.30;;;12.80;68.90;;;;;;5024786;28;20440;-68
2023/03/20 11:03:25;;;;;;;4.43;4.00;;;12.90;68.80;;;;;;5030498;28;20543;-70
2023/03/20 11:05:56;;;;;;;4.80;3.93;;;13.00;69.30;;;;;;5030639;28;20568;-68
2023/03/20 11:08:25;;;;;;;5.93;4.90;;;13.00;68.50;;;;;;5030745;28;20464;-68
2023/03/20 11:11:01;;;;;;;6.10;5.50;;;13.00;68.90;;;;;;5031801;28;20458;-68
2023/03/20 11:13:31;;;;;;;4.87;4.43;;;13.00;67.80;;;;;;5025104;28;20447;-68
2023/03/20 11:16:09;;;;;;;5.53;4.90;;;13.00;68.20;;;;;;5015946;28;20448;-67
2023/03/20 11:18:36;;;;;;;6.03;5.43;;;13.30;68.00;;;;;;5028373;28;20905;-69
2023/03/20 11:21:04;;;;;;;7.07;4.77;;;13.40;66.40;;;;;;5030188;28;20454;-68
2023/03/20 11:23:34;;;;;;;6.50;4.60;;;13.60;68.70;;;;;;5021736;28;20481;-69
2023/03/20 11:26:04;;;;;;;7.30;5.17;;;13.70;66.30;;;;;;5023774;28;20957;-69
2023/03/20 11:28:35;;;;;;;5.47;4.40;;;13.90;64.10;;;;;;5024725;28;20540;-68
2023/03/20 11:31:07;;;;;;;5.50;4.60;;;14.10;64.80;;;;;;5020611;28;20453;-68
2023/03/20 11:33:37;;;;;;;7.37;6.10;;;14.20;64.20;;;;;;5014035;28;20457;-67
2023/03/20 11:36:13;;;;;;;6.37;5.77;;;14.30;63.30;;;;;;5026273;28;20533;-68
2023/03/20 11:38:46;;;;;;;6.40;5.80;;;14.20;64.10;;;;;;5017840;28;20850;-66
2023/03/20 11:41:22;;;;;;;7.07;5.90;;;14.00;65.90;;;;;;5019551;28;20575;-68
2023/03/20 11:43:51;;;;;;;6.10;5.50;;;13.90;64.80;;;;;;5024954;28;20490;-68
2023/03/20 11:46:21;;;;;;;6.20;5.60;;;13.70;63.90;;;;;;5014913;28;20457;-67
2023/03/20 11:49:03;;;;;;;5.40;4.87;;;13.50;63.90;;;;;;5027071;28;20445;-68
2023/03/20 11:51:30;;;;;;;5.90;5.40;;;13.60;62.70;;;;;;5016093;28;20452;-65
2023/03/20 11:54:02;;;;;;;7.23;6.47;;;13.80;62.40;;;;;;5022166;28;20444;-68
2023/03/20 11:56:32;;;;;;;5.67;5.17;;;14.10;60.40;;;;;;5021110;28;20458;-67
2023/03/20 11:59:07;;;;;;;7.10;5.47;;;14.20;61.30;;;;;;5024829;28;20458;-68
2023/03/20 12:01:43;;;;;;;6.10;5.50;;;14.40;59.20;;;;;;5017760;28;20458;-68
2023/03/20 12:04:13;;;;;;;8.07;5.50;;;14.60;58.70;;;;;;5020162;28;20858;-69
2023/03/20 12:06:46;;;;;;;8.20;6.23;;;14.50;58.20;;;;;;5011868;28;20496;-68
2023/03/20 12:09:24;;;;;;;6.00;4.90;;;14.40;61.00;;;;;;5029526;28;20854;-69
2023/03/20 12:11:55;;;;;;;5.30;4.60;;;14.40;61.30;;;;;;5021731;28;20454;-71
2023/03/20 12:14:32;;;;;;;6.63;5.40;;;14.30;60.30;;;;;;5029491;28;20456;-70
2023/03/20 12:17:20;;;;;;;7.93;7.13;;;14.50;61.20;;;;;;5025144;28;20493;-68
2023/03/20 12:19:49;;;;;;;7.50;6.37;;;14.40;59.00;;;;;;5026786;28;20526;-67
2023/03/20 12:22:23;;;;;;;9.13;5.00;;;15.10;57.00;;;;;;5026509;28;20453;-67
2023/03/20 12:24:56;;;;;;;6.60;5.67;;;15.80;55.10;;;;;;5023924;28;20472;-68
2023/03/20 12:27:29;;;;;;;6.63;5.17;;;15.70;54.80;;;;;;5025740;28;20478;-68
2023/03/20 12:30:05;;;;;;;5.93;5.07;;;15.40;56.10;;;;;;5018358;28;20453;-68
2023/03/20 12:32:40;;;;;;;6.23;4.60;;;15.30;56.60;;;;;;5025770;28;20460;-66
2023/03/20 12:35:13;;;;;;;5.90;4.97;;;15.40;55.70;;;;;;5016367;28;20845;-68
2023/03/20 12:37:40;;;;;;;6.50;5.23;;;16.20;54.40;;;;;;5018951;28;20469;-68
2023/03/20 12:40:16;;;;;;;6.27;5.10;;;16.50;53.30;;;;;;5015958;28;20473;-68
2023/03/20 12:43:02;;;;;;;6.07;5.30;;;16.40;53.10;;;;;;5021754;28;20535;-68
2023/03/20 12:45:34;;;;;;;4.63;4.13;;;16.80;52.20;;;;;;5014884;28;20995;-68
2023/03/20 12:48:18;;;;;;;5.73;4.30;;;16.50;52.30;;;;;;5013053;28;20555;-67
2023/03/20 12:50:49;;;;;;;7.20;4.60;;;16.50;52.20;;;;;;5010644;28;20461;-68
2023/03/20 12:53:32;;;;;;;4.40;3.73;;;16.30;52.70;;;;;;5015654;28;20464;-67
2023/03/20 12:56:13;;;;;;;4.20;3.77;;;16.10;52.40;;;;;;5021176;28;20455;-68
2023/03/20 12:58:46;;;;;;;6.63;4.00;;;15.60;55.10;;;;;;5016142;28;20446;-67
2023/03/20 13:01:19;;;;;;;4.83;4.30;;;15.70;53.90;;;;;;5017870;28;20456;-67
2023/03/20 13:04:06;;;;;;;5.10;4.60;;;15.90;53.30;;;;;;5023604;28;20463;-67
2023/03/20 13:06:41;;;;;;;5.10;4.60;;;15.50;54.10;;;;;;5018175;28;20556;-67
2023/03/20 13:09:24;;;;;;;6.77;4.80;;;15.30;55.20;;;;;;5020370;28;20452;-67